createdAt,value
2022-09-06T00:01:14.671Z,3.92
2022-09-06T00:03:42.389Z,5.13
2022-09-06T00:06:11.963Z,4.38
2022-09-06T00:08:39.597Z,3.97
2022-09-06T00:11:07.700Z,3.47
2022-09-06T00:13:35.667Z,4.30
2022-09-06T00:16:08.815Z,3.33
2022-09-06T00:18:36.427Z,3.03
2022-09-06T00:21:04.956Z,4.45
2022-09-06T00:23:32.294Z,4.38
2022-09-06T00:26:04.454Z,4.78
2022-09-06T00:28:32.043Z,6.72
2022-09-06T00:30:59.453Z,4.53
2022-09-06T00:33:26.999Z,5.15
2022-09-06T00:35:59.026Z,5.68
2022-09-06T00:38:26.789Z,4.82
2022-09-06T00:40:54.999Z,5.53
2022-09-06T00:43:26.495Z,6.18
2022-09-06T00:45:56.113Z,5.07
2022-09-06T00:48:45.430Z,4.70
2022-09-06T00:51:19.261Z,5.00
2022-09-06T00:53:57.417Z,4.75
2022-09-06T00:56:40.589Z,5.35
2022-09-06T00:59:18.570Z,5.75
2022-09-06T01:01:48.778Z,5.50
2022-09-06T01:04:19.386Z,5.47
2022-09-06T01:07:23.593Z,6.03
2022-09-06T01:09:57.141Z,6.68
2022-09-06T01:13:09.340Z,6.32
2022-09-06T01:16:15.217Z,7.90
2022-09-06T01:19:05.728Z,7.55
2022-09-06T01:22:29.938Z,6.57
2022-09-06T01:25:53.252Z,6.47
2022-09-06T01:28:40.825Z,6.65
2022-09-06T01:31:35.878Z,7.30
2022-09-06T01:34:34.369Z,8.55
2022-09-06T01:37:20.482Z,6.68
2022-09-06T01:40:02.134Z,6.38
2022-09-06T01:42:34.843Z,6.33
2022-09-06T01:45:10.842Z,6.40
2022-09-06T01:48:01.503Z,6.90
2022-09-06T01:51:18.143Z,6.78
2022-09-06T01:54:25.447Z,8.55
2022-09-06T01:57:21.316Z,5.47
2022-09-06T02:00:27.448Z,7.78
2022-09-06T02:03:10.288Z,6.57
2022-09-06T02:05:56.327Z,6.57
2022-09-06T02:08:37.990Z,5.53
2022-09-06T02:11:10.906Z,6.72
2022-09-06T02:13:56.930Z,6.88
2022-09-06T02:16:27.717Z,8.20
2022-09-06T02:19:33.087Z,6.75
2022-09-06T02:24:37.659Z,8.15
2022-09-06T02:27:31.037Z,7.18
2022-09-06T02:30:06.596Z,6.00
2022-09-06T02:32:46.688Z,5.72
2022-09-06T02:35:24.072Z,8.32
2022-09-06T02:38:02.070Z,7.57
2022-09-06T02:40:40.281Z,6.40
2022-09-06T02:43:24.582Z,6.95
2022-09-06T02:45:57.217Z,7.70
2022-09-06T02:48:36.218Z,6.88
2022-09-06T02:51:18.699Z,6.65
2022-09-06T02:56:33.467Z,7.03
2022-09-06T02:59:15.946Z,7.18
2022-09-06T03:01:57.163Z,5.72
2022-09-06T03:04:37.350Z,6.20
2022-09-06T03:07:13.325Z,6.30
2022-09-06T03:09:51.715Z,8.05
2022-09-06T03:12:25.111Z,6.88
2022-09-06T03:14:57.410Z,5.97
2022-09-06T03:17:32.218Z,6.93
2022-09-06T03:20:03.772Z,7.43
2022-09-06T03:22:40.464Z,7.38
2022-09-06T03:25:14.723Z,7.43
2022-09-06T03:27:51.949Z,7.00
2022-09-06T03:30:26.176Z,6.93
2022-09-06T03:33:02.812Z,7.40
2022-09-06T03:35:39.928Z,6.45
2022-09-06T03:38:27.240Z,7.07
2022-09-06T03:41:00.339Z,8.27
2022-09-06T03:43:45.166Z,6.75
2022-09-06T03:46:20.831Z,6.45
2022-09-06T03:48:49.233Z,7.55
2022-09-06T03:51:17.669Z,8.38
2022-09-06T03:53:45.437Z,10.75
2022-09-06T03:56:12.863Z,8.55
2022-09-06T03:58:40.319Z,9.23
2022-09-06T04:01:10.650Z,9.60
2022-09-06T04:03:39.422Z,9.52
2022-09-06T04:06:07.543Z,8.77
2022-09-06T04:08:36.612Z,10.07
2022-09-06T04:11:04.816Z,8.98
2022-09-06T04:13:33.733Z,9.48
2022-09-06T04:16:01.909Z,10.27
2022-09-06T04:18:29.861Z,11.80
2022-09-06T04:20:58.188Z,11.95
2022-09-06T04:23:27.735Z,9.10
2022-09-06T04:25:56.767Z,14.13
2022-09-06T04:28:26.521Z,10.98
2022-09-06T04:31:03.949Z,11.52
2022-09-06T04:33:34.830Z,10.55
2022-09-06T04:36:05.201Z,9.50
2022-09-06T04:38:36.652Z,9.98
2022-09-06T04:41:04.983Z,10.55
2022-09-06T04:43:32.380Z,10.38
2022-09-06T04:46:25.620Z,11.80
2022-09-06T04:48:54.979Z,12.15
2022-09-06T04:51:23.760Z,11.48
2022-09-06T04:53:51.809Z,10.93
2022-09-06T04:56:24.235Z,11.45
2022-09-06T04:58:53.736Z,11.90
2022-09-06T05:01:22.035Z,11.85
2022-09-06T05:03:50.844Z,11.30
2022-09-06T05:06:22.282Z,10.63
2022-09-06T05:08:50.776Z,13.80
2022-09-06T05:11:20.026Z,10.48
2022-09-06T05:13:47.884Z,11.43
2022-09-06T05:16:15.407Z,11.02
2022-09-06T05:18:44.247Z,12.38
2022-09-06T05:21:11.757Z,14.23
2022-09-06T05:23:39.211Z,12.48
2022-09-06T05:26:06.704Z,12.57
2022-09-06T05:28:34.567Z,11.93
2022-09-06T05:31:29.268Z,13.10
2022-09-06T05:33:57.846Z,11.75
2022-09-06T05:36:29.714Z,13.15
2022-09-06T05:38:57.907Z,14.15
2022-09-06T05:41:26.215Z,11.85
2022-09-06T05:43:53.677Z,15.30
2022-09-06T05:46:21.515Z,12.02
2022-09-06T05:48:57.986Z,14.57
2022-09-06T05:51:25.572Z,14.85
2022-09-06T05:53:53.155Z,12.55
2022-09-06T05:56:20.713Z,10.93
2022-09-06T05:58:48.171Z,12.07
2022-09-06T06:01:27.302Z,13.93
2022-09-06T06:04:00.577Z,13.82
2022-09-06T06:06:36.336Z,14.90
2022-09-06T06:09:04.278Z,15.43
2022-09-06T06:11:42.658Z,15.75
2022-09-06T06:14:14.743Z,15.15
2022-09-06T06:16:42.539Z,13.68
2022-09-06T06:19:10.394Z,15.07
2022-09-06T06:21:42.336Z,15.07
2022-09-06T06:26:39.801Z,12.82
2022-09-06T06:29:32.756Z,13.63
2022-09-06T06:45:59.071Z,15.90
2022-09-06T06:48:26.517Z,12.88
2022-09-06T06:50:53.863Z,12.00
2022-09-06T06:53:21.272Z,11.10
2022-09-06T06:55:49.129Z,12.43
2022-09-06T06:58:17.943Z,11.65
2022-09-06T07:00:46.111Z,11.15
2022-09-06T07:03:13.664Z,11.93
2022-09-06T07:08:30.851Z,13.05
2022-09-06T07:11:00.919Z,12.57
2022-09-06T07:13:28.611Z,11.82
2022-09-06T07:16:15.223Z,15.05
2022-09-06T07:18:43.587Z,11.18
2022-09-06T07:24:08.512Z,11.73
2022-09-06T07:26:39.561Z,10.95
2022-09-06T07:29:08.458Z,9.85
2022-09-06T07:34:26.006Z,9.23
2022-09-06T07:36:56.649Z,10.13
2022-09-06T07:39:24.262Z,10.82
2022-09-06T07:41:52.261Z,9.52
2022-09-06T07:44:19.708Z,13.13
2022-09-06T07:46:47.296Z,11.40
2022-09-06T07:49:14.865Z,9.85
2022-09-06T07:51:45.040Z,10.43
2022-09-06T07:54:30.126Z,10.15
2022-09-06T07:56:58.371Z,10.52
2022-09-06T07:59:25.915Z,10.60
2022-09-06T08:01:53.513Z,12.35
2022-09-06T08:04:21.075Z,11.98
2022-09-06T08:09:38.599Z,11.75
2022-09-06T08:12:09.270Z,9.57
2022-09-06T08:14:36.737Z,11.10
2022-09-06T08:17:04.512Z,10.40
2022-09-06T08:19:32.669Z,8.98
2022-09-06T08:22:00.132Z,10.07
2022-09-06T08:24:27.671Z,11.02
2022-09-06T08:26:55.154Z,14.82
2022-09-06T08:29:22.597Z,11.40
2022-09-06T08:31:50.112Z,8.82
2022-09-06T08:34:17.690Z,8.73
2022-09-06T08:36:45.997Z,9.65
2022-09-06T08:39:13.597Z,9.45
2022-09-06T08:41:58.587Z,9.10
2022-09-06T08:47:25.452Z,13.32
2022-09-06T08:50:00.733Z,8.82
2022-09-06T08:53:00.132Z,8.98
2022-09-06T08:55:55.947Z,11.80
2022-09-06T08:58:32.311Z,7.22
2022-09-06T09:01:14.399Z,8.48
2022-09-06T09:03:43.866Z,12.40
2022-09-06T09:06:11.464Z,9.20
2022-09-06T09:08:52.327Z,8.23
2022-09-06T09:11:25.657Z,7.50
2022-09-06T09:14:17.212Z,6.70
2022-09-06T09:16:44.915Z,8.60
2022-09-06T09:19:13.453Z,6.43
2022-09-06T09:21:40.981Z,7.53
2022-09-06T09:24:11.507Z,10.60
2022-09-06T09:27:11.200Z,8.82
2022-09-06T09:32:45.331Z,7.65
2022-09-06T09:35:37.287Z,6.93
2022-09-06T09:38:19.169Z,9.43
2022-09-06T09:41:00.060Z,6.82
2022-09-06T09:43:34.648Z,6.68
2022-09-06T09:46:30.502Z,8.77
2022-09-06T09:49:05.410Z,7.88
2022-09-06T09:51:44.755Z,9.50
2022-09-06T09:54:15.125Z,5.93
2022-09-06T09:56:51.723Z,5.63
2022-09-06T09:59:26.793Z,6.93
2022-09-06T10:02:03.907Z,4.90
2022-09-06T10:05:02.264Z,5.82
2022-09-06T10:07:34.129Z,6.43
2022-09-06T10:10:06.036Z,8.52
2022-09-06T10:12:38.889Z,6.78
2022-09-06T10:15:08.973Z,6.68
2022-09-06T10:17:47.551Z,5.68
2022-09-06T10:20:16.693Z,6.78
2022-09-06T10:23:09.517Z,8.43
2022-09-06T10:25:37.974Z,6.55
2022-09-06T10:28:29.546Z,8.20
2022-09-06T10:31:06.282Z,6.97
2022-09-06T10:33:51.875Z,7.82
2022-09-06T10:36:24.985Z,5.93
2022-09-06T10:39:10.361Z,7.80
2022-09-06T10:42:08.334Z,6.35
2022-09-06T10:45:00.031Z,7.32
2022-09-06T10:47:53.142Z,6.43
2022-09-06T10:50:22.309Z,7.10
2022-09-06T10:52:52.927Z,6.05
2022-09-06T10:55:20.881Z,7.35
2022-09-06T11:00:47.660Z,7.50
2022-09-06T11:06:28.874Z,7.68
2022-09-06T11:09:03.276Z,6.73
2022-09-06T11:11:42.921Z,7.72
2022-09-06T11:14:13.859Z,9.10
2022-09-06T11:17:07.485Z,6.35
2022-09-06T11:19:47.643Z,6.78
2022-09-06T11:22:40.177Z,7.32
2022-09-06T11:25:50.925Z,11.18
2022-09-06T11:28:28.369Z,6.32
2022-09-06T11:30:58.150Z,6.85
2022-09-06T11:33:31.694Z,7.45
2022-09-06T11:36:19.471Z,11.82
2022-09-06T11:38:59.616Z,8.32
2022-09-06T11:41:38.153Z,7.03
2022-09-06T11:44:07.694Z,10.65
2022-09-06T11:46:35.363Z,8.70
2022-09-06T11:49:42.851Z,10.93
2022-09-06T11:52:52.210Z,8.45
2022-09-06T11:55:22.827Z,11.50
2022-09-06T11:57:55.895Z,8.80
2022-09-06T12:00:24.773Z,7.93
2022-09-06T12:02:52.977Z,9.48
2022-09-06T12:05:25.736Z,9.70
2022-09-06T12:08:24.436Z,9.65
2022-09-06T12:11:00.974Z,9.55
2022-09-06T12:13:47.021Z,7.95
2022-09-06T12:16:17.065Z,7.13
2022-09-06T12:18:47.646Z,8.77
2022-09-06T12:21:36.638Z,8.45
2022-09-06T12:24:25.577Z,8.13
2022-09-06T12:27:16.322Z,9.13
2022-09-06T12:30:05.593Z,10.35
2022-09-06T12:33:02.367Z,8.55
2022-09-06T12:38:24.367Z,7.22
2022-09-06T12:40:56.479Z,8.50
2022-09-06T12:43:24.531Z,8.50
2022-09-06T12:45:55.011Z,9.13
2022-09-06T12:48:44.403Z,9.15
2022-09-06T12:51:20.264Z,6.30
2022-09-06T12:53:58.980Z,10.73
2022-09-06T12:56:28.667Z,10.27
2022-09-06T12:59:20.522Z,8.55
2022-09-06T13:02:01.066Z,7.60
2022-09-06T13:04:46.533Z,8.60
2022-09-06T13:07:17.667Z,6.75
2022-09-06T13:09:49.045Z,9.20
2022-09-06T13:12:37.835Z,9.68
2022-09-06T13:15:11.874Z,7.30
2022-09-06T13:17:40.190Z,8.73
2022-09-06T13:20:28.451Z,7.53
2022-09-06T13:23:21.790Z,6.25
2022-09-06T13:25:52.381Z,6.60
2022-09-06T13:28:31.927Z,7.40
2022-09-06T13:31:21.085Z,6.93
2022-09-06T13:33:59.045Z,8.05
2022-09-06T13:36:34.813Z,6.82
2022-09-06T13:39:05.640Z,5.13
2022-09-06T13:41:38.890Z,5.00
2022-09-06T13:44:15.504Z,3.42
2022-09-06T13:46:46.173Z,7.25
2022-09-06T13:49:14.229Z,4.30
2022-09-06T13:51:43.389Z,4.32
2022-09-06T13:54:14.235Z,4.30
2022-09-06T13:56:48.511Z,4.00
2022-09-06T13:59:16.754Z,4.63
2022-09-06T14:01:46.676Z,4.10
2022-09-06T14:04:16.585Z,3.88
2022-09-06T14:06:44.115Z,4.03
2022-09-06T14:09:11.873Z,4.25
2022-09-06T14:11:39.619Z,3.65
2022-09-06T14:14:07.162Z,4.25
2022-09-06T14:16:36.036Z,4.82
2022-09-06T14:19:04.303Z,3.03
2022-09-06T14:21:32.816Z,5.20
2022-09-06T14:24:04.166Z,4.15
2022-09-06T14:26:33.241Z,3.72
2022-09-06T14:29:00.867Z,4.28
2022-09-06T14:31:29.383Z,2.38
2022-09-06T14:33:57.779Z,2.63
2022-09-06T14:36:28.490Z,3.08
2022-09-06T14:38:58.544Z,2.30
2022-09-06T14:41:26.313Z,4.95
2022-09-06T14:43:56.050Z,4.28
2022-09-06T14:46:25.522Z,4.78
2022-09-06T14:49:07.871Z,5.20
2022-09-06T14:51:36.930Z,4.85
2022-09-06T14:54:10.942Z,3.03
2022-09-06T14:56:44.193Z,3.05
2022-09-06T14:59:12.270Z,1.83
2022-09-06T15:01:41.266Z,4.22
2022-09-06T15:04:10.676Z,2.85
2022-09-06T15:06:40.712Z,5.65
2022-09-06T15:09:08.292Z,4.47
2022-09-06T15:11:41.947Z,4.53
2022-09-06T15:14:17.242Z,7.88
2022-09-06T15:16:45.794Z,3.63
2022-09-06T15:19:14.201Z,4.85
2022-09-06T15:21:42.549Z,3.83
2022-09-06T15:24:12.208Z,4.35
2022-09-06T15:26:41.671Z,4.22
2022-09-06T15:29:11.927Z,4.13
2022-09-06T15:31:40.329Z,5.10
2022-09-06T15:34:09.051Z,3.38
2022-09-06T15:36:37.673Z,4.68
2022-09-06T15:39:06.059Z,4.03
2022-09-06T15:41:36.076Z,4.88
2022-09-06T15:44:13.306Z,5.28
2022-09-06T15:46:55.349Z,6.15
2022-09-06T15:49:28.636Z,5.20
2022-09-06T15:51:58.248Z,4.55
2022-09-06T15:54:44.406Z,6.15
2022-09-06T15:57:13.147Z,5.90
2022-09-06T15:59:41.073Z,3.45
2022-09-06T16:02:09.430Z,5.32
2022-09-06T16:04:36.977Z,3.45
2022-09-06T16:07:04.504Z,3.38
2022-09-06T16:09:32.225Z,4.07
2022-09-06T16:11:59.728Z,2.92
2022-09-06T16:14:29.026Z,3.35
2022-09-06T16:16:57.348Z,4.00
2022-09-06T16:19:26.086Z,2.92
2022-09-06T16:21:53.997Z,5.38
2022-09-06T16:24:21.561Z,4.00
2022-09-06T16:26:49.160Z,3.22
2022-09-06T16:29:18.275Z,2.15
2022-09-06T16:31:46.391Z,2.13
2022-09-06T16:34:14.997Z,4.13
2022-09-06T16:36:42.476Z,5.10
2022-09-06T16:39:12.030Z,3.80
2022-09-06T16:41:44.932Z,3.47
2022-09-06T16:44:17.031Z,3.38
2022-09-06T16:46:47.052Z,3.10
2022-09-06T16:49:17.219Z,3.40
2022-09-06T16:51:45.808Z,3.75
2022-09-06T16:54:15.442Z,3.80
2022-09-06T16:56:43.632Z,2.85
2022-09-06T16:59:11.973Z,4.13
2022-09-06T17:01:44.338Z,3.33
2022-09-06T17:04:13.122Z,4.05
2022-09-06T17:06:47.024Z,5.05
2022-09-06T17:11:43.398Z,4.40
2022-09-06T17:14:11.151Z,3.20
2022-09-06T17:16:57.114Z,3.53
2022-09-06T17:19:24.928Z,5.22
2022-09-06T17:21:52.454Z,4.07
2022-09-06T17:24:20.076Z,5.60
2022-09-06T17:26:49.128Z,3.95
2022-09-06T17:29:16.803Z,4.18
2022-09-06T17:31:52.959Z,5.07
2022-09-06T17:34:20.558Z,4.57
2022-09-06T17:36:48.200Z,3.80
2022-09-06T17:39:25.904Z,4.38
2022-09-06T17:41:54.262Z,3.55
2022-09-06T17:44:25.457Z,3.55
2022-09-06T17:47:12.942Z,4.10
2022-09-06T17:49:42.352Z,5.95
2022-09-06T17:52:12.949Z,3.22
2022-09-06T17:54:40.501Z,4.63
2022-09-06T17:57:07.943Z,5.40
2022-09-06T17:59:36.094Z,5.35
2022-09-06T18:02:04.866Z,3.58
2022-09-06T18:04:32.883Z,4.18
2022-09-06T18:07:00.487Z,5.97
2022-09-06T18:09:28.452Z,5.20
2022-09-06T18:11:56.009Z,4.82
2022-09-06T18:14:23.434Z,4.95
2022-09-06T18:16:54.633Z,4.85
2022-09-06T18:19:23.207Z,3.75
2022-09-06T18:21:51.537Z,3.42
2022-09-06T18:24:19.058Z,4.93
2022-09-06T18:26:46.675Z,5.43
2022-09-06T18:29:16.652Z,4.05
2022-09-06T18:31:44.805Z,4.05
2022-09-06T18:34:16.832Z,3.72
2022-09-06T18:36:44.407Z,5.93
2022-09-06T18:39:13.158Z,3.88
2022-09-06T18:41:59.194Z,6.72
2022-09-06T18:44:42.031Z,5.75
2022-09-06T18:47:12.642Z,3.60
2022-09-06T18:49:43.962Z,6.10
2022-09-06T18:52:11.925Z,4.32
2022-09-06T18:54:39.391Z,4.55
2022-09-06T18:57:07.061Z,7.50
2022-09-06T18:59:34.595Z,8.32
2022-09-06T19:02:02.135Z,6.78
2022-09-06T19:04:29.728Z,5.85
2022-09-06T19:06:57.210Z,7.82
2022-09-06T19:09:24.660Z,6.25
2022-09-06T19:11:53.220Z,5.03
2022-09-06T19:14:23.257Z,6.45
2022-09-06T19:16:53.862Z,7.15
2022-09-06T19:19:22.699Z,6.18
2022-09-06T19:21:50.175Z,5.53
2022-09-06T19:24:19.676Z,5.30
2022-09-06T19:26:47.357Z,4.53
2022-09-06T19:29:18.171Z,8.23
2022-09-06T19:31:47.437Z,8.48
2022-09-06T19:34:16.907Z,8.27
2022-09-06T19:36:46.060Z,5.03
2022-09-06T19:39:16.622Z,10.75
2022-09-06T19:41:46.771Z,8.63
2022-09-06T19:44:17.812Z,6.87
2022-09-06T19:46:47.311Z,4.95
2022-09-06T19:49:19.701Z,4.80
2022-09-06T19:51:49.171Z,5.20
2022-09-06T19:54:17.178Z,5.82
2022-09-06T19:56:45.970Z,3.88
2022-09-06T19:59:15.426Z,5.82
2022-09-06T20:01:44.828Z,5.35
2022-09-06T20:04:24.194Z,7.75
2022-09-06T20:06:51.654Z,4.45
2022-09-06T20:09:19.307Z,7.07
2022-09-06T20:11:46.801Z,5.88
2022-09-06T20:14:14.510Z,5.47
2022-09-06T20:16:44.815Z,8.30
2022-09-06T20:19:22.190Z,8.20
2022-09-06T20:21:53.811Z,5.15
2022-09-06T20:24:21.543Z,5.50
2022-09-06T20:27:09.502Z,5.32
2022-09-06T20:30:06.325Z,4.90
2022-09-06T20:32:40.956Z,5.10
2022-09-06T20:35:13.403Z,6.63
2022-09-06T20:37:43.740Z,7.05
2022-09-06T20:40:13.157Z,5.80
2022-09-06T20:42:42.313Z,7.35
2022-09-06T20:45:12.076Z,8.70
2022-09-06T20:47:39.701Z,8.25
2022-09-06T20:50:10.549Z,11.88
2022-09-06T20:52:38.288Z,8.50
2022-09-06T20:55:06.517Z,8.32
2022-09-06T20:57:34.042Z,6.93
2022-09-06T21:00:02.132Z,11.18
2022-09-06T21:02:49.285Z,11.18
2022-09-06T21:05:16.824Z,8.68
2022-09-06T21:07:44.445Z,8.63
2022-09-06T22:17:59.159Z,9.02
2022-09-06T22:20:29.143Z,10.95
2022-09-06T22:22:57.914Z,8.93
2022-09-06T22:25:25.330Z,12.60
2022-09-06T22:27:52.793Z,10.55
2022-09-06T22:30:25.047Z,9.75
2022-09-06T22:32:53.697Z,5.75
2022-09-06T22:36:26.084Z,4.80
2022-09-06T22:44:07.449Z,8.63
2022-09-06T22:46:35.932Z,6.82
2022-09-06T22:49:05.369Z,8.80
2022-09-06T22:51:32.777Z,8.13
2022-09-06T22:54:00.139Z,7.70
2022-09-06T22:56:27.437Z,6.43
2022-09-06T22:58:54.745Z,7.72
2022-09-06T23:01:22.333Z,6.97
2022-09-06T23:03:50.570Z,8.98
2022-09-06T23:06:18.109Z,5.82
2022-09-06T23:08:45.480Z,7.30
2022-09-06T23:11:15.952Z,7.35
2022-09-06T23:13:44.045Z,5.38
2022-09-06T23:16:15.052Z,6.00
2022-09-06T23:18:42.885Z,5.57
2022-09-06T23:21:13.037Z,6.65
2022-09-06T23:23:41.578Z,7.13
2022-09-06T23:26:15.085Z,5.63
2022-09-06T23:28:43.492Z,4.93
2022-09-06T23:31:13.863Z,6.28
2022-09-06T23:33:41.806Z,7.25
2022-09-06T23:36:11.525Z,5.18
2022-09-06T23:38:40.408Z,5.93
2022-09-06T23:41:09.850Z,7.03
2022-09-06T23:43:38.912Z,4.38
2022-09-06T23:46:07.254Z,9.63
2022-09-06T23:48:35.005Z,7.82
2022-09-06T23:51:02.912Z,6.68
2022-09-06T23:53:30.544Z,7.47
2022-09-06T23:55:57.918Z,15.50
2022-09-06T23:58:25.722Z,7.05
